METAR Data
IDs: Format: Raw Decoded Include TAF

Data at: 0341 UTC 21 Sep 2018

KWAL 210254Z AUTO 09006KT 10SM CLR 21/17 A3025 RMK AO2 SLP239 T02110167 51012 TSNO
KWAL 210154Z AUTO 09007KT 10SM CLR 22/17 A3024 RMK AO2 SLP236 T02170167 TSNO
KWAL 210054Z AUTO 10010KT 10SM FEW018 22/17 A3023 RMK AO2 SLP233 T02170167 TSNO
KWAL 210047Z AUTO 10009KT 10SM SCT018 22/17 A3023 RMK AO2 T02170172 TSNO
KWAL 210021Z AUTO 10008KT 10SM BKN018 22/17 A3022 RMK AO2 T02220172 TSNO
KWAL 202354Z AUTO 09011KT 10SM FEW018 22/17 A3021 RMK AO2 SLP227 T02220172 10250 20222 51003 TSNO
KWAL 202254Z AUTO 08008KT 10SM FEW020 22/17 A3021 RMK AO2 SLP226 T02220172 TSNO
KWAL 202154Z AUTO 07008KT 10SM SCT055 23/17 A3021 RMK AO2 SLP225 T02330167 TSNO
KWAL 202054Z 07010KT 10SM OVC055 24/17 A3020 RMK AO2 SLP224 T02390172 55003
KWAL 201954Z 07010KT 10SM FEW025 BKN060 24/17 A3020 RMK AO2 SLP223 T02440172
KWAL 201854Z 07008KT 10SM FEW025 SCT055 24/17 A3021 RMK AO2 SLP225 T02440172
KWAL 201754Z 10010KT 10SM FEW025 BKN055 24/17 A3021 RMK AO2 SLP227 60000 T02440172 10256 20228 51001
KWAL 201654Z COR 07011KT 10SM FEW025 BKN050 25/17 A3021 RMK AO2 SLP227 T02500172
KWAL 201607Z 07009KT 10SM FEW023 SCT030 SCT049 25/18 A3022 RMK AO2 T02500178
KWAL 201554Z 06010KT 10SM FEW023 BKN029 24/18 A3022 RMK AO2 SLP230 T02440178
KWAL 201503Z 06008KT 10SM BKN020 25/18 A3021 RMK AO2 T02500178
KWAL 201454Z 08008KT 10SM SCT020 24/18 A3021 RMK AO2 SLP226 60000 T02440178 51021
KWAL 201401Z 06009KT 10SM FEW019 BKN034 OVC045 24/18 A3019 RMK AO2 T02390178
KWAL 201354Z 07009KT 10SM BKN021 BKN038 24/17 A3019 RMK AO2 RAE1255 SLP221 P0000 T02390172
KWAL 201254Z 08008KT 10SM -RA BKN019 BKN040 23/18 A3017 RMK AO2 RAB44 SLP215 P0000 T02280178
KWAL 201154Z 09009KT 10SM FEW016 BKN025 BKN040 23/18 A3015 RMK AO2 SLP205 7//// T02280183 10233 20228 53028
KWAL 201054Z AUTO 08009KT 10SM SCT016 BKN021 OVC038 23/19 A3012 RMK AO2 SLP195 T02280189 TSNO
KWAL 200954Z AUTO 08009KT 10SM BKN017 OVC043 23/19 A3009 RMK AO2 SLP185 T02280189 TSNO
KWAL 200935Z AUTO 08008KT 10SM BKN017 BKN040 23/19 A3008 RMK AO2 T02330189 TSNO
KWAL 200919Z AUTO 07006KT 10SM SCT015 BKN039 23/19 A3008 RMK AO2 T02280189 TSNO
KWAL 200854Z AUTO 09006KT 10SM FEW015 BKN024 OVC032 23/19 A3006 RMK AO2 SLP177 T02280194 53005 TSNO
KWAL 200845Z AUTO 09007KT 10SM SCT020 OVC032 23/19 A3006 RMK AO2 T02330194 TSNO
KWAL 200754Z AUTO 09008KT 10SM OVC018 23/19 A3005 RMK AO2 SLP173 T02330194 TSNO
KWAL 200654Z AUTO 08007KT 10SM BKN015 23/19 A3005 RMK AO2 SLP171 T02280194 TSNO
KWAL 200645Z AUTO 09005KT 10SM BKN017 23/19 A3004 RMK AO2 T02280194 TSNO
KWAL 200628Z AUTO 09008KT 10SM SCT015 23/19 A3004 RMK AO2 T02280194 TSNO
KWAL 200554Z AUTO 09006KT 10SM BKN014 23/20 A3005 RMK AO2 SLP172 T02280200 10244 20228 51007 TSNO
KWAL 200507Z AUTO 09006KT 10SM BKN014 23/20 A3005 RMK AO2 T02280200 TSNO
KWAL 200454Z AUTO 09006KT 10SM SCT013 23/19 A3004 RMK AO2 SLP170 T02280194 403060211 TSNO
KWAL 200354Z AUTO 08006KT 10SM FEW015 BKN050 23/20 A3004 RMK AO2 SLP168 T02330200 TSNO
KWAL 200254Z 07005KT 10SM FEW046 23/20 A3003 RMK AO2 SLP165 T02330200 51022
KWAL 200154Z 07005KT 10SM CLR 23/20 A3001 RMK AO2 SLP158 T02330200
KWAL 200054Z 06008KT 10SM CLR 24/20 A2999 RMK AO2 SLP152 T02390200
KWAL 192354Z 06009KT 10SM CLR 24/20 A2996 RMK AO2 SLP143 T02440200 51016
KWAL 192332Z 07009KT 10SM SCT012 24/21 A2995 RMK AO2 T02440211
KWAL 192317Z 06009KT 10SM BKN012 24/22 A2996 RMK AO2 T02440217
KWAL 192308Z 06009KT 10SM SCT011 24/22 A2995 RMK AO2 T02440217
KWAL 192301Z 06010KT 10SM BKN011 24/22 A2995 RMK AO2 T02440217
KWAL 192254Z 06011KT 10SM SCT011 25/22 A2995 RMK AO2 SLP139 T02500217
KWAL 192154Z 06010KT 10SM FEW043 FEW050 26/22 A2994 RMK AO2 SLP134 T02560217
KWAL 192054Z 06011KT 10SM BKN049 27/22 A2991 RMK AO2 SLP126 T02720217
KWAL 191954Z 36010KT 10SM FEW046 30/18 A2990 RMK AO2 SLP121 T03000183
KWAL 191854Z FEW042 A2989 RMK AO2 SLP120 $
KWAL 191654Z 33010KT SCT034 29/22 A2990 RMK AO2 SLP122 T02940217 $
KWAL 191554Z 33008KT BKN030 29/22 A2990 RMK AO2 SLP122 T02890217 $